Terminal Aerodrome Forecast
Issued by NWS Wilmington, OH

Current Version | Previous Version | Graphics & Text | Print | Product List | Glossary On
Versions: 1 2 3 4 5 6 7 8 9 10 11 12 13 14 15 16 17 18 19 20 21
000
FTUS41 KILN 131737
TAFILN
TAF
KILN 131737Z 1318/1418 07004KT P6SM SCT045
     FM140000 08003KT P6SM FEW250
     FM141000 10003KT P6SM BKN140
     FM141400 16005KT P6SM BKN080=

USA.gov is the U.S. government's official web portal to all federal, state and local government web resources and services.